createdAt,value
2023-05-19T00:02:44.150Z,37.02
2023-05-19T00:05:46.324Z,36.95
2023-05-19T00:08:49.614Z,36.88
2023-05-19T00:11:51.530Z,36.79
2023-05-19T00:14:53.394Z,36.94
2023-05-19T00:17:55.584Z,37.15
2023-05-19T00:20:57.295Z,37.03
2023-05-19T00:23:59.245Z,37.37
2023-05-19T00:27:00.860Z,37.78
2023-05-19T00:30:02.482Z,38.44
2023-05-19T00:33:04.203Z,39.94
2023-05-19T00:36:06.447Z,42.65
2023-05-19T00:39:08.102Z,42.81
2023-05-19T00:42:09.740Z,39.52
2023-05-19T00:45:11.326Z,37.33
2023-05-19T00:48:12.966Z,35.08
2023-05-19T00:51:17.164Z,34.14
2023-05-19T00:54:20.658Z,33.94
2023-05-19T00:57:22.508Z,33.20
2023-05-19T01:00:24.753Z,32.93
2023-05-19T01:03:26.639Z,33.04
2023-05-19T01:06:29.637Z,32.63
2023-05-19T01:09:32.280Z,32.30
2023-05-19T01:12:34.887Z,31.93
2023-05-19T01:15:52.245Z,32.10
2023-05-19T01:19:12.367Z,32.09
2023-05-19T01:22:42.829Z,32.22
2023-05-19T01:26:13.756Z,32.22
2023-05-19T01:29:35.562Z,32.29
2023-05-19T01:32:41.292Z,32.08
2023-05-19T01:35:44.135Z,32.24
2023-05-19T01:38:47.408Z,32.26
2023-05-19T01:41:49.382Z,32.48
2023-05-19T01:44:52.148Z,32.44
2023-05-19T01:47:56.924Z,32.27
2023-05-19T01:50:58.937Z,32.30
2023-05-19T01:54:00.719Z,32.29
2023-05-19T01:57:41.109Z,32.13
2023-05-19T02:00:53.342Z,32.41
2023-05-19T02:04:19.795Z,32.22
2023-05-19T02:07:44.417Z,32.21
2023-05-19T02:10:51.680Z,32.21
2023-05-19T02:13:57.355Z,32.23
2023-05-19T02:16:59.582Z,32.02
2023-05-19T02:20:01.191Z,31.99
2023-05-19T02:23:02.832Z,32.01
2023-05-19T02:26:04.855Z,31.90
2023-05-19T02:29:06.532Z,31.90
2023-05-19T02:32:08.280Z,31.90
2023-05-19T02:35:10.131Z,31.94
2023-05-19T02:38:11.709Z,31.93
2023-05-19T02:41:13.341Z,31.98
2023-05-19T02:44:15.071Z,31.99
2023-05-19T02:47:16.646Z,32.00
2023-05-19T02:50:18.287Z,31.97
2023-05-19T02:53:19.866Z,32.18
2023-05-19T02:56:21.813Z,32.12
2023-05-19T02:59:25.480Z,32.29
2023-05-19T03:02:27.444Z,32.08
2023-05-19T03:05:30.363Z,32.22
2023-05-19T03:08:32.050Z,32.31
2023-05-19T03:11:33.800Z,32.28
2023-05-19T03:14:37.776Z,32.22
2023-05-19T03:17:39.542Z,32.19
2023-05-19T03:20:42.529Z,32.35
2023-05-19T03:23:44.139Z,32.09
2023-05-19T03:26:46.050Z,32.18
2023-05-19T03:29:47.676Z,32.06
2023-05-19T03:32:49.412Z,32.22
2023-05-19T03:35:53.036Z,32.29
2023-05-19T03:38:54.674Z,32.20
2023-05-19T03:41:56.447Z,32.00
2023-05-19T03:44:58.039Z,31.98
2023-05-19T03:47:59.717Z,32.05
2023-05-19T03:51:01.444Z,32.04
2023-05-19T03:54:03.530Z,31.95
2023-05-19T03:57:05.946Z,31.78
2023-05-19T04:00:08.336Z,31.90
2023-05-19T04:03:10.095Z,31.79
2023-05-19T04:06:12.966Z,31.65
2023-05-19T04:09:15.986Z,31.69
2023-05-19T04:12:17.573Z,31.63
2023-05-19T04:15:19.203Z,31.68
2023-05-19T04:18:21.030Z,31.73
2023-05-19T04:21:22.862Z,31.88
2023-05-19T04:24:26.804Z,32.04
2023-05-19T04:27:30.000Z,31.82
2023-05-19T04:30:31.935Z,32.10
2023-05-19T04:33:34.008Z,31.99
2023-05-19T04:36:35.761Z,32.02
2023-05-19T04:39:43.108Z,31.93
2023-05-19T04:42:46.251Z,31.76
2023-05-19T04:45:50.224Z,32.05
2023-05-19T04:48:53.211Z,32.09
2023-05-19T04:51:56.643Z,32.00
2023-05-19T04:54:58.234Z,31.98
2023-05-19T04:57:59.867Z,32.23
2023-05-19T05:01:01.473Z,33.19
2023-05-19T05:04:03.160Z,33.64
2023-05-19T05:07:05.001Z,34.29
2023-05-19T05:10:07.348Z,34.76
2023-05-19T05:13:11.206Z,35.25
2023-05-19T05:16:14.161Z,36.99
2023-05-19T05:19:16.486Z,37.96
2023-05-19T05:22:18.475Z,38.10
2023-05-19T05:25:20.819Z,37.90
2023-05-19T05:28:22.713Z,38.14
2023-05-19T05:31:24.304Z,38.01
2023-05-19T05:34:26.047Z,38.08
2023-05-19T05:37:28.011Z,37.60
2023-05-19T05:40:29.735Z,37.83
2023-05-19T05:43:31.364Z,37.28
2023-05-19T05:46:33.125Z,37.29
2023-05-19T05:49:38.208Z,37.01
2023-05-19T05:52:41.538Z,37.55
2023-05-19T05:55:43.550Z,38.96
2023-05-19T05:58:45.275Z,40.77
2023-05-19T06:01:46.862Z,45.41
2023-05-19T06:04:48.816Z,44.72
2023-05-19T06:07:50.404Z,44.51
2023-05-19T06:10:52.010Z,45.01
2023-05-19T06:13:53.634Z,46.41
2023-05-19T06:16:55.689Z,45.07
2023-05-19T06:19:57.420Z,44.95
2023-05-19T06:23:01.016Z,46.56
2023-05-19T06:26:02.655Z,44.67
2023-05-19T06:29:04.336Z,44.41
2023-05-19T06:32:05.952Z,45.22
2023-05-19T06:35:07.946Z,45.52
2023-05-19T06:38:09.573Z,48.78
2023-05-19T06:41:11.136Z,49.72
2023-05-19T06:44:12.744Z,50.67
2023-05-19T06:47:14.419Z,51.46
2023-05-19T06:50:16.279Z,51.77
2023-05-19T06:53:19.996Z,55.56
2023-05-19T06:56:22.983Z,56.54
2023-05-19T06:59:24.649Z,56.46
2023-05-19T07:02:26.381Z,57.15
2023-05-19T07:05:28.082Z,58.18
2023-05-19T07:08:29.708Z,57.91
2023-05-19T07:11:31.386Z,57.88
2023-05-19T07:14:33.103Z,58.35
2023-05-19T07:17:34.811Z,57.96
2023-05-19T07:20:36.465Z,57.12
2023-05-19T07:23:38.044Z,58.32
2023-05-19T07:26:40.545Z,57.76
2023-05-19T07:29:42.180Z,59.11
2023-05-19T07:32:43.866Z,58.96
2023-05-19T07:35:46.359Z,59.54
2023-05-19T07:38:49.039Z,59.07
2023-05-19T07:41:54.304Z,60.49
2023-05-19T07:44:56.160Z,58.34
2023-05-19T07:47:57.912Z,59.99
2023-05-19T07:50:59.540Z,64.08
2023-05-19T07:54:01.177Z,61.26
2023-05-19T07:57:02.774Z,100.00
2023-05-19T08:00:07.936Z,91.95
2023-05-19T08:03:10.088Z,87.63
2023-05-19T08:06:11.933Z,84.39
2023-05-19T08:09:13.557Z,84.05
2023-05-19T08:12:15.157Z,85.74
2023-05-19T08:15:16.889Z,85.05
2023-05-19T08:18:18.612Z,81.66
2023-05-19T08:21:20.286Z,83.12
2023-05-19T08:24:21.859Z,80.41
2023-05-19T08:27:23.663Z,79.90
2023-05-19T08:30:26.447Z,77.69
2023-05-19T08:33:28.363Z,72.48
2023-05-19T08:36:30.731Z,74.41
2023-05-19T08:39:34.209Z,75.96
2023-05-19T08:42:35.871Z,72.86
2023-05-19T08:45:41.010Z,73.93
2023-05-19T08:48:44.275Z,77.02
2023-05-19T08:52:17.291Z,77.92
2023-05-19T08:55:21.845Z,76.40
2023-05-19T08:58:23.561Z,78.62
2023-05-19T09:01:26.772Z,78.16
2023-05-19T09:04:30.069Z,70.66
2023-05-19T09:07:34.981Z,70.80
2023-05-19T09:10:36.618Z,67.98
2023-05-19T09:13:44.434Z,68.69
2023-05-19T09:16:49.812Z,70.70
2023-05-19T09:19:51.530Z,69.36
2023-05-19T09:22:53.215Z,72.24
2023-05-19T09:25:56.281Z,69.54
2023-05-19T09:28:58.431Z,71.12
2023-05-19T09:32:06.078Z,68.51
2023-05-19T09:35:08.238Z,67.33
2023-05-19T09:38:09.833Z,66.04
2023-05-19T09:41:14.681Z,69.85
2023-05-19T09:44:30.476Z,69.36
2023-05-19T09:47:39.813Z,70.87
2023-05-19T09:50:44.138Z,68.65
2023-05-19T09:53:46.585Z,67.13
2023-05-19T09:56:58.796Z,64.22
2023-05-19T10:00:00.723Z,64.91
2023-05-19T10:03:04.945Z,67.53
2023-05-19T10:06:09.205Z,66.46
2023-05-19T10:09:11.240Z,66.98
2023-05-19T10:12:13.514Z,65.75
2023-05-19T10:15:22.185Z,62.46
2023-05-19T10:18:25.879Z,60.78
2023-05-19T10:21:27.826Z,56.65
2023-05-19T10:24:29.491Z,59.05
2023-05-19T10:27:32.794Z,57.24
2023-05-19T10:30:46.494Z,55.15
2023-05-19T10:34:09.643Z,55.08
2023-05-19T10:37:22.199Z,58.66
2023-05-19T10:40:29.780Z,57.76
2023-05-19T10:43:50.914Z,59.44
2023-05-19T10:46:54.203Z,57.28
2023-05-19T10:50:00.822Z,59.10
2023-05-19T10:53:02.822Z,58.88
2023-05-19T10:56:04.708Z,57.03
2023-05-19T10:59:06.423Z,56.93
2023-05-19T11:02:09.046Z,55.05
2023-05-19T11:05:16.809Z,52.53
2023-05-19T11:08:32.547Z,49.38
2023-05-19T11:11:48.367Z,49.49
2023-05-19T11:14:54.394Z,52.79
2023-05-19T11:17:56.891Z,52.37
2023-05-19T11:21:02.378Z,48.45
2023-05-19T11:24:08.940Z,47.46
2023-05-19T11:27:31.736Z,49.50
2023-05-19T11:30:33.586Z,53.29
2023-05-19T11:33:36.132Z,52.11
2023-05-19T11:36:40.044Z,47.26
2023-05-19T11:39:43.877Z,45.27
2023-05-19T11:42:45.608Z,43.95
2023-05-19T11:45:47.263Z,43.08
2023-05-19T11:48:50.591Z,43.53
2023-05-19T11:51:52.296Z,43.47
2023-05-19T11:54:54.104Z,43.74
2023-05-19T11:58:03.874Z,42.53
2023-05-19T12:01:07.054Z,43.54
2023-05-19T12:04:10.314Z,41.88
2023-05-19T12:07:13.496Z,43.62
2023-05-19T12:10:15.764Z,42.97
2023-05-19T12:13:17.417Z,42.58
2023-05-19T12:16:21.077Z,41.60
2023-05-19T12:19:24.236Z,41.17
2023-05-19T12:22:26.042Z,40.32
2023-05-19T12:25:29.224Z,43.04
2023-05-19T12:28:33.807Z,44.17
2023-05-19T12:31:35.973Z,43.17
2023-05-19T12:34:38.710Z,47.02
2023-05-19T12:37:43.128Z,47.56
2023-05-19T12:40:44.920Z,48.00
2023-05-19T12:43:46.608Z,45.03
2023-05-19T12:46:52.219Z,41.82
2023-05-19T12:50:00.423Z,47.92
2023-05-19T12:53:02.082Z,46.72
2023-05-19T12:56:14.362Z,42.10
2023-05-19T12:59:38.891Z,39.02
2023-05-19T13:03:05.403Z,39.14
2023-05-19T13:06:07.503Z,40.28
2023-05-19T13:09:09.175Z,34.97
2023-05-19T13:12:10.752Z,38.00
2023-05-19T13:15:12.403Z,40.39
2023-05-19T13:18:14.532Z,39.03
2023-05-19T13:21:16.123Z,42.33
2023-05-19T13:24:17.783Z,40.41
2023-05-19T13:27:19.655Z,38.16
2023-05-19T13:30:22.112Z,39.93
2023-05-19T13:33:23.706Z,40.88
2023-05-19T13:36:27.926Z,43.08
2023-05-19T13:39:29.585Z,43.80
2023-05-19T13:42:33.052Z,43.64
2023-05-19T13:45:34.795Z,47.62
2023-05-19T13:48:36.477Z,47.69
2023-05-19T13:51:39.670Z,48.19
2023-05-19T13:54:41.328Z,46.10
2023-05-19T13:57:44.092Z,46.53
2023-05-19T14:00:45.920Z,46.35
2023-05-19T14:03:47.624Z,44.32
2023-05-19T14:06:49.274Z,46.12
2023-05-19T14:09:52.496Z,46.16
2023-05-19T14:13:18.213Z,46.67
2023-05-19T14:16:16.298Z,47.22
2023-05-19T14:19:18.066Z,47.61
2023-05-19T14:22:19.730Z,47.54
2023-05-19T14:25:21.750Z,48.44
2023-05-19T14:28:23.369Z,47.64
2023-05-19T14:31:25.876Z,48.67
2023-05-19T14:34:27.874Z,44.80
2023-05-19T14:37:31.775Z,41.99
2023-05-19T14:40:33.714Z,43.51
2023-05-19T14:43:35.518Z,46.04
2023-05-19T14:46:37.248Z,43.68
2023-05-19T14:49:38.929Z,44.50
2023-05-19T14:52:40.535Z,47.12
2023-05-19T14:55:42.802Z,45.74
2023-05-19T14:58:44.458Z,49.72
2023-05-19T15:01:46.141Z,52.08
2023-05-19T15:04:47.877Z,49.42
2023-05-19T15:07:50.594Z,52.07
2023-05-19T15:10:52.239Z,52.17
2023-05-19T15:13:54.089Z,50.87
2023-05-19T15:16:55.793Z,50.30
2023-05-19T15:19:57.413Z,55.15
2023-05-19T15:22:59.068Z,52.95
2023-05-19T15:26:00.771Z,48.49
2023-05-19T15:29:02.425Z,44.41
2023-05-19T15:32:04.137Z,38.83
2023-05-19T15:35:06.253Z,40.79
2023-05-19T15:38:07.914Z,41.79
2023-05-19T15:41:10.175Z,36.50
2023-05-19T15:44:11.988Z,41.65
2023-05-19T15:47:13.844Z,41.84
2023-05-19T15:50:16.784Z,40.40
2023-05-19T15:53:20.206Z,35.58
2023-05-19T15:56:22.467Z,35.54
2023-05-19T15:59:24.078Z,42.48
2023-05-19T16:02:25.823Z,35.78
2023-05-19T16:05:27.504Z,34.50
2023-05-19T16:08:29.605Z,38.93
2023-05-19T16:11:31.247Z,39.05
2023-05-19T16:14:36.454Z,38.65
2023-05-19T16:17:38.158Z,39.49
2023-05-19T16:20:39.823Z,45.08
2023-05-19T16:23:41.445Z,47.87
2023-05-19T16:26:43.106Z,48.20
2023-05-19T16:29:44.704Z,50.15
2023-05-19T16:32:46.469Z,48.82
2023-05-19T16:35:48.131Z,51.44
2023-05-19T16:38:49.799Z,53.20
2023-05-19T16:41:52.850Z,53.79
2023-05-19T16:47:56.069Z,59.30
2023-05-19T16:50:57.756Z,60.66
2023-05-19T16:53:59.991Z,61.62
2023-05-19T16:57:02.389Z,63.52
2023-05-19T17:00:04.561Z,64.12
2023-05-19T17:03:06.447Z,64.74
2023-05-19T17:06:08.178Z,66.04
2023-05-19T17:09:09.753Z,67.03
2023-05-19T17:12:11.376Z,67.27
2023-05-19T17:15:13.078Z,68.52
2023-05-19T17:18:16.056Z,68.94
2023-05-19T17:21:17.837Z,72.67
2023-05-19T17:24:19.487Z,74.17
2023-05-19T17:27:21.209Z,73.83
2023-05-19T17:30:22.808Z,74.94
2023-05-19T17:33:24.643Z,77.37
2023-05-19T17:36:26.492Z,76.83
2023-05-19T17:39:28.196Z,78.12
2023-05-19T17:42:31.612Z,78.44
2023-05-19T17:45:33.281Z,78.49
2023-05-19T17:48:36.286Z,79.60
2023-05-19T17:51:38.356Z,79.72
2023-05-19T17:54:40.187Z,80.56
2023-05-19T17:57:44.722Z,81.54
2023-05-19T18:00:46.585Z,84.41
2023-05-19T18:03:49.831Z,46.53
2023-05-19T18:06:52.659Z,0.00
2023-05-19T18:09:56.088Z,0.00
2023-05-19T18:12:57.785Z,0.00
2023-05-19T18:15:59.756Z,0.00
2023-05-19T18:19:02.045Z,0.00
2023-05-19T18:22:03.886Z,0.00
2023-05-19T18:25:06.077Z,0.00
2023-05-19T18:28:07.905Z,0.00
2023-05-19T18:31:11.035Z,0.00
2023-05-19T18:34:14.060Z,0.00
2023-05-19T18:37:15.733Z,0.00
2023-05-19T18:40:17.515Z,0.00
2023-05-19T18:43:19.404Z,0.00
2023-05-19T18:46:21.050Z,0.00
2023-05-19T18:49:24.965Z,0.00
2023-05-19T18:52:28.678Z,0.00
2023-05-19T18:55:30.479Z,0.00
2023-05-19T18:58:32.538Z,0.00
2023-05-19T19:01:34.202Z,0.00
2023-05-19T19:04:35.826Z,0.00
2023-05-19T19:07:44.808Z,0.00
2023-05-19T19:10:46.445Z,0.00
2023-05-19T19:13:51.317Z,0.00
2023-05-19T19:16:53.140Z,0.00
2023-05-19T19:19:54.836Z,0.00
2023-05-19T19:22:56.922Z,0.00
2023-05-19T19:25:58.677Z,0.00
2023-05-19T19:29:00.448Z,0.00
2023-05-19T19:32:02.112Z,0.00
2023-05-19T19:35:03.916Z,0.00
2023-05-19T19:38:05.516Z,0.00
2023-05-19T19:41:07.223Z,0.00
2023-05-19T19:44:09.008Z,0.00
2023-05-19T19:47:11.166Z,0.00
2023-05-19T19:50:13.016Z,0.00
2023-05-19T19:53:15.597Z,0.00
2023-05-19T19:56:17.262Z,0.00
2023-05-19T19:59:19.588Z,0.00
2023-05-19T20:02:21.851Z,0.00
2023-05-19T20:05:23.526Z,0.00
2023-05-19T20:08:25.793Z,0.00
2023-05-19T20:11:27.415Z,0.00
2023-05-19T20:14:29.069Z,0.00
2023-05-19T20:17:30.803Z,0.00
2023-05-19T20:20:32.556Z,0.00
2023-05-19T20:23:34.291Z,0.00
2023-05-19T20:26:36.299Z,0.00
2023-05-19T20:29:38.008Z,0.00
2023-05-19T20:32:40.190Z,0.00
2023-05-19T20:35:42.008Z,0.00
2023-05-19T20:38:43.670Z,0.00
2023-05-19T20:41:45.390Z,0.00
2023-05-19T20:44:47.005Z,0.00
2023-05-19T20:47:48.639Z,0.00
2023-05-19T20:50:51.237Z,0.00
2023-05-19T20:53:53.434Z,0.00
2023-05-19T20:56:55.074Z,0.00
2023-05-19T20:59:56.738Z,0.00
2023-05-19T21:02:58.423Z,0.00
2023-05-19T21:06:00.915Z,0.00
2023-05-19T21:09:05.186Z,0.00
2023-05-19T21:12:07.065Z,0.00
2023-05-19T21:15:09.806Z,0.00
2023-05-19T21:18:12.424Z,0.00
2023-05-19T21:21:14.307Z,0.00
2023-05-19T21:24:16.122Z,0.00
2023-05-19T21:27:17.766Z,0.00
2023-05-19T21:30:19.434Z,0.00
2023-05-19T21:33:21.067Z,0.00
2023-05-19T21:36:23.499Z,0.00
2023-05-19T21:39:25.149Z,0.00
2023-05-19T21:42:26.790Z,0.00
2023-05-19T21:45:28.685Z,0.00
2023-05-19T21:48:30.980Z,0.00
2023-05-19T21:51:35.083Z,0.00
2023-05-19T21:54:36.699Z,0.00
2023-05-19T21:57:38.468Z,0.00
2023-05-19T22:00:40.551Z,0.00
2023-05-19T22:03:42.289Z,0.00
2023-05-19T22:06:44.075Z,0.00
2023-05-19T22:09:48.132Z,0.00
2023-05-19T22:12:50.506Z,0.00
2023-05-19T22:15:52.350Z,0.00
2023-05-19T22:18:54.013Z,0.00
2023-05-19T22:22:01.724Z,0.00
2023-05-19T22:25:07.937Z,0.00
2023-05-19T22:28:09.621Z,0.00
2023-05-19T22:31:11.229Z,0.00
2023-05-19T22:34:14.495Z,0.00
2023-05-19T22:37:16.216Z,0.00
2023-05-19T22:40:18.171Z,0.00
2023-05-19T22:43:19.790Z,0.00
2023-05-19T22:46:21.524Z,0.00
2023-05-19T22:49:23.257Z,0.00
2023-05-19T22:52:24.942Z,0.00
2023-05-19T22:55:26.739Z,0.00
2023-05-19T22:58:28.325Z,0.00
2023-05-19T23:01:30.003Z,0.00
2023-05-19T23:04:32.455Z,0.00
2023-05-19T23:07:34.146Z,0.00
2023-05-19T23:10:35.890Z,0.00
2023-05-19T23:13:37.664Z,0.00
2023-05-19T23:16:39.249Z,0.00
2023-05-19T23:19:40.962Z,0.00
2023-05-19T23:22:42.594Z,0.00
2023-05-19T23:25:44.221Z,0.00
2023-05-19T23:28:45.952Z,0.00
2023-05-19T23:31:47.637Z,0.00
2023-05-19T23:34:49.263Z,0.00
2023-05-19T23:37:50.940Z,0.00
2023-05-19T23:40:52.572Z,0.00
2023-05-19T23:43:54.496Z,0.00
2023-05-19T23:46:56.307Z,0.00
2023-05-19T23:49:57.897Z,0.00
2023-05-19T23:53:00.716Z,0.00
2023-05-19T23:56:02.319Z,0.00
2023-05-19T23:59:03.929Z,0.00
